Terminal Aerodrome Forecast
Issued by NWS

Home | Current Version | Previous Version | Text Only | Print | Product List | Glossary On
Versions: 1 2 3 4 5 6 7 8 9 10 11 12 13 14 15 16 17 18 19 20 21
000
FTUS41 KRLX 040500 RRA
TAFCKB
TAF
KCKB 040543Z 0406/0506 28008KT 4SM -RA BR OVC015
     FM040800 27004KT 5SM RA BR OVC008
     FM041600 23004KT 2SM +RA OVC008
     FM050200 VRB03KT 2SM -SNPL OVC010
     FM050400 35005KT 1SM -SN BR OVC008=

USA.gov is the U.S. government's official web portal to all federal, state and local government web resources and services.